sensor_id;sensor_type;location;lat;lon;timestamp;pressure;altitude;pressure_sealevel;temperature;humidity
78444;BME280;67739;52.986;8.894;2023-09-30T00:00:12;102381.28;;;13.63;76.33
78444;BME280;67739;52.986;8.894;2023-09-30T00:02:38;102382.28;;;13.60;76.50
78444;BME280;67739;52.986;8.894;2023-09-30T00:05:04;102373.41;;;13.57;76.71
78444;BME280;67739;52.986;8.894;2023-09-30T00:07:29;102373.59;;;13.52;76.52
78444;BME280;67739;52.986;8.894;2023-09-30T00:09:54;102373.69;;;13.49;76.56
78444;BME280;67739;52.986;8.894;2023-09-30T00:12:20;102384.56;;;13.46;76.52
78444;BME280;67739;52.986;8.894;2023-09-30T00:14:45;102392.75;;;13.43;76.70
78444;BME280;67739;52.986;8.894;2023-09-30T00:17:13;102397.41;;;13.39;76.31
78444;BME280;67739;52.986;8.894;2023-09-30T00:19:39;102395.69;;;13.37;76.65
78444;BME280;67739;52.986;8.894;2023-09-30T00:22:04;102404.78;;;13.33;76.64
78444;BME280;67739;52.986;8.894;2023-09-30T00:24:29;102399.50;;;13.30;76.76
78444;BME280;67739;52.986;8.894;2023-09-30T00:26:55;102398.75;;;13.26;76.65
78444;BME280;67739;52.986;8.894;2023-09-30T00:29:21;102403.34;;;13.23;77.03
78444;BME280;67739;52.986;8.894;2023-09-30T00:31:47;102396.25;;;13.20;76.94
78444;BME280;67739;52.986;8.894;2023-09-30T00:34:12;102390.97;;;13.17;76.87
78444;BME280;67739;52.986;8.894;2023-09-30T00:36:38;102400.03;;;13.15;76.90
78444;BME280;67739;52.986;8.894;2023-09-30T00:39:03;102393.84;;;13.11;76.95
78444;BME280;67739;52.986;8.894;2023-09-30T00:41:29;102391.28;;;13.06;77.14
78444;BME280;67739;52.986;8.894;2023-09-30T00:43:54;102384.13;;;13.05;76.84
78444;BME280;67739;52.986;8.894;2023-09-30T00:46:28;102384.22;;;13.02;77.23
78444;BME280;67739;52.986;8.894;2023-09-30T00:48:55;102378.94;;;12.99;77.25
78444;BME280;67739;52.986;8.894;2023-09-30T00:51:22;102397.91;;;12.96;77.27
78444;BME280;67739;52.986;8.894;2023-09-30T00:53:49;102395.31;;;12.93;77.29
78444;BME280;67739;52.986;8.894;2023-09-30T00:56:16;102393.59;;;12.91;76.99
78444;BME280;67739;52.986;8.894;2023-09-30T00:58:43;102396.38;;;12.88;77.09
78444;BME280;67739;52.986;8.894;2023-09-30T01:01:10;102402.75;;;12.85;77.44
78444;BME280;67739;52.986;8.894;2023-09-30T01:03:36;102406.44;;;12.83;77.12
78444;BME280;67739;52.986;8.894;2023-09-30T01:06:02;102401.16;;;12.80;77.25
78444;BME280;67739;52.986;8.894;2023-09-30T01:08:28;102402.13;;;12.77;77.30
78444;BME280;67739;52.986;8.894;2023-09-30T01:10:54;102407.59;;;12.74;77.26
78444;BME280;67739;52.986;8.894;2023-09-30T01:13:20;102405.00;;;12.71;77.39
78444;BME280;67739;52.986;8.894;2023-09-30T01:15:45;102406.88;;;12.69;77.67
78444;BME280;67739;52.986;8.894;2023-09-30T01:18:12;102406.97;;;12.66;77.38
78444;BME280;67739;52.986;8.894;2023-09-30T01:20:38;102407.94;;;12.63;77.30
78444;BME280;67739;52.986;8.894;2023-09-30T01:23:03;102417.91;;;12.60;77.35
78444;BME280;67739;52.986;8.894;2023-09-30T01:25:29;102431.41;;;12.58;77.58
78444;BME280;67739;52.986;8.894;2023-09-30T01:27:54;102421.63;;;12.56;77.70
78444;BME280;67739;52.986;8.894;2023-09-30T01:30:20;102410.97;;;12.53;77.49
78444;BME280;67739;52.986;8.894;2023-09-30T01:32:47;102410.13;;;12.51;77.45
78444;BME280;67739;52.986;8.894;2023-09-30T01:35:13;102402.16;;;12.48;77.50
78444;BME280;67739;52.986;8.894;2023-09-30T01:37:38;102407.63;;;12.45;77.56
78444;BME280;67739;52.986;8.894;2023-09-30T01:40:04;102404.09;;;12.43;77.74
78444;BME280;67739;52.986;8.894;2023-09-30T01:42:33;102414.03;;;12.41;77.79
78444;BME280;67739;52.986;8.894;2023-09-30T01:44:58;102401.56;;;12.38;77.77
78444;BME280;67739;52.986;8.894;2023-09-30T01:47:24;102400.72;;;12.36;77.83
78444;BME280;67739;52.986;8.894;2023-09-30T01:49:49;102396.28;;;12.33;77.66
78444;BME280;67739;52.986;8.894;2023-09-30T01:52:14;102405.28;;;12.32;78.03
78444;BME280;67739;52.986;8.894;2023-09-30T01:54:40;102404.50;;;12.29;77.64
78444;BME280;67739;52.986;8.894;2023-09-30T01:57:05;102404.53;;;12.27;77.80
78444;BME280;67739;52.986;8.894;2023-09-30T01:59:31;102410.91;;;12.25;77.95
78444;BME280;67739;52.986;8.894;2023-09-30T02:01:56;102413.69;;;12.22;78.02
78444;BME280;67739;52.986;8.894;2023-09-30T02:04:21;102411.94;;;12.21;77.81
78444;BME280;67739;52.986;8.894;2023-09-30T02:06:47;102410.19;;;12.18;77.74
78444;BME280;67739;52.986;8.894;2023-09-30T02:09:12;102413.84;;;12.16;77.88
78444;BME280;67739;52.986;8.894;2023-09-30T02:11:37;102423.78;;;12.14;78.15
78444;BME280;67739;52.986;8.894;2023-09-30T02:14:03;102422.97;;;12.12;78.13
78444;BME280;67739;52.986;8.894;2023-09-30T02:16:28;102423.00;;;12.10;78.05
78444;BME280;67739;52.986;8.894;2023-09-30T02:18:54;102417.72;;;12.07;78.09
78444;BME280;67739;52.986;8.894;2023-09-30T02:21:19;102424.91;;;12.07;78.24
78444;BME280;67739;52.986;8.894;2023-09-30T02:23:47;102433.94;;;12.04;78.10
78444;BME280;67739;52.986;8.894;2023-09-30T02:26:14;102436.66;;;12.02;78.19
78444;BME280;67739;52.986;8.894;2023-09-30T02:28:40;102434.00;;;12.01;78.25
78444;BME280;67739;52.986;8.894;2023-09-30T02:31:05;102446.59;;;11.99;77.97
78444;BME280;67739;52.986;8.894;2023-09-30T02:33:33;102440.41;;;11.97;77.95
78444;BME280;67739;52.986;8.894;2023-09-30T02:36:00;102444.94;;;11.95;78.25
78444;BME280;67739;52.986;8.894;2023-09-30T02:38:26;102439.63;;;11.93;78.32
78444;BME280;67739;52.986;8.894;2023-09-30T02:40:51;102442.34;;;11.92;78.34
78444;BME280;67739;52.986;8.894;2023-09-30T02:43:16;102438.81;;;11.90;78.47
78444;BME280;67739;52.986;8.894;2023-09-30T02:45:42;102432.59;;;11.88;78.34
78444;BME280;67739;52.986;8.894;2023-09-30T02:48:08;102438.91;;;11.85;78.49
78444;BME280;67739;52.986;8.894;2023-09-30T02:50:34;102431.78;;;11.84;78.28
78444;BME280;67739;52.986;8.894;2023-09-30T02:52:59;102430.97;;;11.82;78.18
78444;BME280;67739;52.986;8.894;2023-09-30T02:55:24;102437.25;;;11.81;78.49
78444;BME280;67739;52.986;8.894;2023-09-30T02:57:50;102437.31;;;11.80;78.39
78444;BME280;67739;52.986;8.894;2023-09-30T03:00:15;102435.53;;;11.79;78.40
78444;BME280;67739;52.986;8.894;2023-09-30T03:02:54;102429.31;;;11.77;78.55
78444;BME280;67739;52.986;8.894;2023-09-30T03:05:20;102439.19;;;11.75;78.75
78444;BME280;67739;52.986;8.894;2023-09-30T03:07:47;102440.09;;;11.74;78.48
78444;BME280;67739;52.986;8.894;2023-09-30T03:10:13;102443.72;;;11.73;78.74
78444;BME280;67739;52.986;8.894;2023-09-30T03:12:45;102446.44;;;11.71;78.54
78444;BME280;67739;52.986;8.894;2023-09-30T03:15:11;102445.56;;;11.70;78.52
78444;BME280;67739;52.986;8.894;2023-09-30T03:17:36;102450.97;;;11.69;78.57
78444;BME280;67739;52.986;8.894;2023-09-30T03:20:03;102440.28;;;11.67;78.67
78444;BME280;67739;52.986;8.894;2023-09-30T03:22:34;102447.47;;;11.67;78.54
78444;BME280;67739;52.986;8.894;2023-09-30T03:25:00;102443.94;;;11.65;78.41
78444;BME280;67739;52.986;8.894;2023-09-30T03:27:25;102442.16;;;11.64;78.66
78444;BME280;67739;52.986;8.894;2023-09-30T03:29:50;102444.84;;;11.64;78.90
78444;BME280;67739;52.986;8.894;2023-09-30T03:32:16;102441.31;;;11.62;78.86
78444;BME280;67739;52.986;8.894;2023-09-30T03:34:41;102440.44;;;11.61;78.69
78444;BME280;67739;52.986;8.894;2023-09-30T03:37:10;102439.56;;;11.61;78.45
78444;BME280;67739;52.986;8.894;2023-09-30T03:39:35;102439.59;;;11.59;78.38
78444;BME280;67739;52.986;8.894;2023-09-30T03:42:03;102444.09;;;11.59;78.57
78444;BME280;67739;52.986;8.894;2023-09-30T03:44:29;102442.34;;;11.56;78.89
78444;BME280;67739;52.986;8.894;2023-09-30T03:46:54;102444.16;;;11.56;78.92
78444;BME280;67739;52.986;8.894;2023-09-30T03:49:20;102438.81;;;11.54;78.75
78444;BME280;67739;52.986;8.894;2023-09-30T03:51:46;102438.88;;;11.53;78.91
78444;BME280;67739;52.986;8.894;2023-09-30T03:54:11;102435.34;;;11.51;78.57
78444;BME280;67739;52.986;8.894;2023-09-30T03:56:37;102429.97;;;11.51;78.94
78444;BME280;67739;52.986;8.894;2023-09-30T03:59:03;102434.47;;;11.50;78.80
78444;BME280;67739;52.986;8.894;2023-09-30T04:01:29;102429.09;;;11.50;79.06
78444;BME280;67739;52.986;8.894;2023-09-30T04:03:54;102440.75;;;11.49;79.02
78444;BME280;67739;52.986;8.894;2023-09-30T04:06:20;102439.88;;;11.49;78.78
78444;BME280;67739;52.986;8.894;2023-09-30T04:08:46;102446.16;;;11.48;78.98
78444;BME280;67739;52.986;8.894;2023-09-30T04:11:12;102443.53;;;11.46;78.98
78444;BME280;67739;52.986;8.894;2023-09-30T04:13:43;102435.47;;;11.46;78.99
78444;BME280;67739;52.986;8.894;2023-09-30T04:16:09;102444.44;;;11.45;78.81
78444;BME280;67739;52.986;8.894;2023-09-30T04:18:34;102440.03;;;11.43;78.88
78444;BME280;67739;52.986;8.894;2023-09-30T04:20:59;102441.81;;;11.42;78.74
78444;BME280;67739;52.986;8.894;2023-09-30T04:23:25;102439.13;;;11.42;78.90
78444;BME280;67739;52.986;8.894;2023-09-30T04:25:50;102441.84;;;11.41;79.08
78444;BME280;67739;52.986;8.894;2023-09-30T04:28:16;102445.50;;;11.40;78.99
78444;BME280;67739;52.986;8.894;2023-09-30T04:30:46;102445.53;;;11.38;79.02
78444;BME280;67739;52.986;8.894;2023-09-30T04:33:12;102447.34;;;11.38;79.14
78444;BME280;67739;52.986;8.894;2023-09-30T04:35:38;102448.22;;;11.38;78.97
78444;BME280;67739;52.986;8.894;2023-09-30T04:38:03;102445.56;;;11.37;79.11
78444;BME280;67739;52.986;8.894;2023-09-30T04:40:30;102440.19;;;11.37;78.92
78444;BME280;67739;52.986;8.894;2023-09-30T04:42:55;102442.91;;;11.35;79.25
78444;BME280;67739;52.986;8.894;2023-09-30T04:45:24;102446.50;;;11.36;79.49
78444;BME280;67739;52.986;8.894;2023-09-30T04:47:51;102452.78;;;11.34;78.92
78444;BME280;67739;52.986;8.894;2023-09-30T04:50:17;102461.72;;;11.35;79.03
78444;BME280;67739;52.986;8.894;2023-09-30T04:52:42;102459.06;;;11.33;78.90
78444;BME280;67739;52.986;8.894;2023-09-30T04:55:09;102472.47;;;11.35;79.03
78444;BME280;67739;52.986;8.894;2023-09-30T04:57:37;102471.59;;;11.34;79.09
78444;BME280;67739;52.986;8.894;2023-09-30T05:00:02;102463.53;;;11.34;79.09
78444;BME280;67739;52.986;8.894;2023-09-30T05:02:37;102453.66;;;11.35;78.85
78444;BME280;67739;52.986;8.894;2023-09-30T05:05:02;102447.41;;;11.34;78.96
78444;BME280;67739;52.986;8.894;2023-09-30T05:07:31;102457.28;;;11.34;79.25
78444;BME280;67739;52.986;8.894;2023-09-30T05:09:56;102458.19;;;11.33;79.20
78444;BME280;67739;52.986;8.894;2023-09-30T05:12:22;102460.88;;;11.33;79.01
78444;BME280;67739;52.986;8.894;2023-09-30T05:14:48;102468.03;;;11.34;78.95
78444;BME280;67739;52.986;8.894;2023-09-30T05:17:13;102467.13;;;11.33;79.32
78444;BME280;67739;52.986;8.894;2023-09-30T05:19:38;102468.91;;;11.34;79.25
78444;BME280;67739;52.986;8.894;2023-09-30T05:22:04;102477.88;;;11.33;79.16
78444;BME280;67739;52.986;8.894;2023-09-30T05:24:30;102478.75;;;11.34;79.28
78444;BME280;67739;52.986;8.894;2023-09-30T05:26:55;102480.56;;;11.33;79.05
78444;BME280;67739;52.986;8.894;2023-09-30T05:29:22;102487.75;;;11.33;78.98
78444;BME280;67739;52.986;8.894;2023-09-30T05:31:48;102486.84;;;11.32;79.06
78444;BME280;67739;52.986;8.894;2023-09-30T05:34:13;102490.44;;;11.33;79.10
78444;BME280;67739;52.986;8.894;2023-09-30T05:36:39;102491.34;;;11.32;79.04
78444;BME280;67739;52.986;8.894;2023-09-30T05:39:04;102494.00;;;11.33;79.07
78444;BME280;67739;52.986;8.894;2023-09-30T05:41:30;102494.00;;;11.33;79.06
78444;BME280;67739;52.986;8.894;2023-09-30T05:43:56;102496.72;;;11.32;79.41
78444;BME280;67739;52.986;8.894;2023-09-30T05:46:21;102500.28;;;11.32;79.01
78444;BME280;67739;52.986;8.894;2023-09-30T05:48:49;102501.22;;;11.31;78.93
78444;BME280;67739;52.986;8.894;2023-09-30T05:51:15;102507.47;;;11.32;78.88
78444;BME280;67739;52.986;8.894;2023-09-30T05:53:41;102517.34;;;11.31;79.26
78444;BME280;67739;52.986;8.894;2023-09-30T05:56:10;102512.84;;;11.32;78.84
78444;BME280;67739;52.986;8.894;2023-09-30T05:58:36;102517.34;;;11.31;78.97
78444;BME280;67739;52.986;8.894;2023-09-30T06:01:07;102517.34;;;11.31;78.94
78444;BME280;67739;52.986;8.894;2023-09-30T06:03:32;102518.25;;;11.30;79.19
78444;BME280;67739;52.986;8.894;2023-09-30T06:05:58;102527.19;;;11.31;78.86
78444;BME280;67739;52.986;8.894;2023-09-30T06:08:25;102534.38;;;11.30;78.99
78444;BME280;67739;52.986;8.894;2023-09-30T06:10:50;102529.91;;;11.29;79.04
78444;BME280;67739;52.986;8.894;2023-09-30T06:13:15;102527.22;;;11.29;79.15
78444;BME280;67739;52.986;8.894;2023-09-30T06:15:42;102537.97;;;11.29;79.06
78444;BME280;67739;52.986;8.894;2023-09-30T06:18:09;102533.53;;;11.28;78.72
78444;BME280;67739;52.986;8.894;2023-09-30T06:20:37;102538.91;;;11.28;78.86
78444;BME280;67739;52.986;8.894;2023-09-30T06:23:03;102534.44;;;11.27;79.15
78444;BME280;67739;52.986;8.894;2023-09-30T06:25:28;102541.59;;;11.27;78.90
78444;BME280;67739;52.986;8.894;2023-09-30T06:27:56;102528.19;;;11.27;79.00
78444;BME280;67739;52.986;8.894;2023-09-30T06:30:22;102525.50;;;11.27;79.00
78444;BME280;67739;52.986;8.894;2023-09-30T06:32:50;102533.56;;;11.27;78.80
78444;BME280;67739;52.986;8.894;2023-09-30T06:35:15;102540.72;;;11.26;78.96
78444;BME280;67739;52.986;8.894;2023-09-30T06:37:40;102539.84;;;11.26;78.97
78444;BME280;67739;52.986;8.894;2023-09-30T06:40:07;102554.16;;;11.26;78.81
78444;BME280;67739;52.986;8.894;2023-09-30T06:42:34;102558.66;;;11.26;78.90
78444;BME280;67739;52.986;8.894;2023-09-30T06:45:03;102553.28;;;11.26;79.18
78444;BME280;67739;52.986;8.894;2023-09-30T06:47:34;102543.47;;;11.25;78.97
78444;BME280;67739;52.986;8.894;2023-09-30T06:50:08;102562.22;;;11.26;78.94
78444;BME280;67739;52.986;8.894;2023-09-30T06:52:35;102569.41;;;11.26;79.07
78444;BME280;67739;52.986;8.894;2023-09-30T06:55:03;102566.69;;;11.27;79.06
78444;BME280;67739;52.986;8.894;2023-09-30T06:57:31;102563.09;;;11.27;79.25
78444;BME280;67739;52.986;8.894;2023-09-30T06:59:56;102568.47;;;11.27;79.38
78444;BME280;67739;52.986;8.894;2023-09-30T07:02:22;102586.38;;;11.28;79.15
78444;BME280;67739;52.986;8.894;2023-09-30T07:04:47;102575.59;;;11.29;79.42
78444;BME280;67739;52.986;8.894;2023-09-30T07:07:13;102588.06;;;11.32;79.53
78444;BME280;67739;52.986;8.894;2023-09-30T07:09:39;102585.31;;;11.35;80.06
78444;BME280;67739;52.986;8.894;2023-09-30T07:12:04;102598.66;;;11.40;80.07
78444;BME280;67739;52.986;8.894;2023-09-30T07:14:29;102586.03;;;11.43;80.28
78444;BME280;67739;52.986;8.894;2023-09-30T07:16:55;102588.66;;;11.46;80.35
78444;BME280;67739;52.986;8.894;2023-09-30T07:19:20;102593.94;;;11.49;80.52
78444;BME280;67739;52.986;8.894;2023-09-30T07:21:45;102589.41;;;11.53;80.61
78444;BME280;67739;52.986;8.894;2023-09-30T07:24:11;102596.47;;;11.55;80.66
78444;BME280;67739;52.986;8.894;2023-09-30T07:26:37;102591.91;;;11.59;80.66
78444;BME280;67739;52.986;8.894;2023-09-30T07:29:02;102591.84;;;11.62;81.05
78444;BME280;67739;52.986;8.894;2023-09-30T07:31:33;102598.94;;;11.66;80.96
78444;BME280;67739;52.986;8.894;2023-09-30T07:33:59;102601.50;;;11.70;81.23
78444;BME280;67739;52.986;8.894;2023-09-30T07:36:25;102590.66;;;11.74;81.53
78444;BME280;67739;52.986;8.894;2023-09-30T07:38:50;102595.97;;;11.78;81.50
78444;BME280;67739;52.986;8.894;2023-09-30T07:41:15;102607.56;;;11.82;81.63
78444;BME280;67739;52.986;8.894;2023-09-30T07:43:42;102606.56;;;11.84;81.67
78444;BME280;67739;52.986;8.894;2023-09-30T07:46:08;102604.69;;;11.88;82.09
78444;BME280;67739;52.986;8.894;2023-09-30T07:48:34;102612.69;;;11.91;82.08
78444;BME280;67739;52.986;8.894;2023-09-30T07:51:00;102614.41;;;11.95;81.96
78444;BME280;67739;52.986;8.894;2023-09-30T07:53:25;102608.00;;;11.99;82.02
78444;BME280;67739;52.986;8.894;2023-09-30T07:55:51;102616.84;;;12.04;82.09
78444;BME280;67739;52.986;8.894;2023-09-30T07:58:17;102620.31;;;12.09;82.30
78444;BME280;67739;52.986;8.894;2023-09-30T08:00:42;102615.72;;;12.13;82.08
78444;BME280;67739;52.986;8.894;2023-09-30T08:03:08;102618.34;;;12.16;82.35
78444;BME280;67739;52.986;8.894;2023-09-30T08:05:33;102626.34;;;12.19;82.12
78444;BME280;67739;52.986;8.894;2023-09-30T08:07:59;102624.41;;;12.24;81.95
78444;BME280;67739;52.986;8.894;2023-09-30T08:10:24;102626.03;;;12.29;82.46
78444;BME280;67739;52.986;8.894;2023-09-30T08:12:49;102625.06;;;12.33;82.25
78444;BME280;67739;52.986;8.894;2023-09-30T08:15:15;102623.13;;;12.38;82.28
78444;BME280;67739;52.986;8.894;2023-09-30T08:17:41;102620.28;;;12.43;82.55
78444;BME280;67739;52.986;8.894;2023-09-30T08:20:07;102622.88;;;12.48;82.28
78444;BME280;67739;52.986;8.894;2023-09-30T08:22:36;102633.53;;;12.52;82.59
78444;BME280;67739;52.986;8.894;2023-09-30T08:25:01;102635.16;;;12.58;82.65
78444;BME280;67739;52.986;8.894;2023-09-30T08:27:27;102630.53;;;12.63;82.69
78444;BME280;67739;52.986;8.894;2023-09-30T08:29:52;102634.88;;;12.68;82.60
78444;BME280;67739;52.986;8.894;2023-09-30T08:32:18;102635.63;;;12.73;82.94
78444;BME280;67739;52.986;8.894;2023-09-30T08:34:43;102638.19;;;12.78;82.86
78444;BME280;67739;52.986;8.894;2023-09-30T08:37:09;102638.88;;;12.85;82.76
78444;BME280;67739;52.986;8.894;2023-09-30T08:39:39;102645.88;;;12.92;83.27
78444;BME280;67739;52.986;8.894;2023-09-30T08:42:10;102643.94;;;12.97;83.25
78444;BME280;67739;52.986;8.894;2023-09-30T08:44:38;102642.88;;;13.02;83.34
78444;BME280;67739;52.986;8.894;2023-09-30T08:47:07;102642.72;;;13.08;83.40
78444;BME280;67739;52.986;8.894;2023-09-30T08:49:38;102641.63;;;13.14;83.40
78444;BME280;67739;52.986;8.894;2023-09-30T08:52:06;102654.09;;;13.20;83.43
78444;BME280;67739;52.986;8.894;2023-09-30T08:54:31;102649.41;;;13.26;83.63
78444;BME280;67739;52.986;8.894;2023-09-30T08:56:57;102656.41;;;13.32;83.56
78444;BME280;67739;52.986;8.894;2023-09-30T08:59:24;102657.16;;;13.37;83.35
78444;BME280;67739;52.986;8.894;2023-09-30T09:01:51;102656.06;;;13.42;83.30
78444;BME280;67739;52.986;8.894;2023-09-30T09:04:17;102665.81;;;13.48;83.50
78444;BME280;67739;52.986;8.894;2023-09-30T09:06:43;102661.13;;;13.55;83.28
78444;BME280;67739;52.986;8.894;2023-09-30T09:09:17;102660.03;;;13.60;83.63
78444;BME280;67739;52.986;8.894;2023-09-30T09:11:43;102664.38;;;13.66;83.41
78444;BME280;67739;52.986;8.894;2023-09-30T09:14:09;102664.16;;;13.72;83.36
78444;BME280;67739;52.986;8.894;2023-09-30T09:16:34;102650.47;;;13.78;83.60
78444;BME280;67739;52.986;8.894;2023-09-30T09:19:12;102652.03;;;13.85;83.50
78444;BME280;67739;52.986;8.894;2023-09-30T09:21:38;102654.59;;;13.90;83.71
78444;BME280;67739;52.986;8.894;2023-09-30T09:24:03;102661.63;;;13.95;83.91
78444;BME280;67739;52.986;8.894;2023-09-30T09:26:30;102658.69;;;14.01;83.44
78444;BME280;67739;52.986;8.894;2023-09-30T09:29:03;102653.13;;;14.07;83.29
78444;BME280;67739;52.986;8.894;2023-09-30T09:31:33;102656.56;;;14.12;83.46
78444;BME280;67739;52.986;8.894;2023-09-30T09:34:03;102652.75;;;14.18;83.65
78444;BME280;67739;52.986;8.894;2023-09-30T09:36:42;102650.75;;;14.25;83.49
78444;BME280;67739;52.986;8.894;2023-09-30T09:39:09;102654.97;;;14.32;83.41
78444;BME280;67739;52.986;8.894;2023-09-30T09:44:17;102654.66;;;14.42;83.07
78444;BME280;67739;52.986;8.894;2023-09-30T09:46:45;102658.03;;;14.49;83.26
78444;BME280;67739;52.986;8.894;2023-09-30T09:49:12;102656.00;;;14.56;83.09
78444;BME280;67739;52.986;8.894;2023-09-30T09:51:38;102649.50;;;14.61;82.85
78444;BME280;67739;52.986;8.894;2023-09-30T09:54:05;102660.97;;;14.68;83.02
78444;BME280;67739;52.986;8.894;2023-09-30T09:56:33;102658.97;;;14.73;82.85
78444;BME280;67739;52.986;8.894;2023-09-30T09:59:01;102653.34;;;14.79;82.73
78444;BME280;67739;52.986;8.894;2023-09-30T10:01:30;102644.16;;;14.84;82.96
78444;BME280;67739;52.986;8.894;2023-09-30T10:03:56;102643.91;;;14.91;82.46
78444;BME280;67739;52.986;8.894;2023-09-30T10:06:21;102644.63;;;14.96;82.78
78444;BME280;67739;52.986;8.894;2023-09-30T10:08:49;102656.97;;;15.03;82.66
78444;BME280;67739;52.986;8.894;2023-09-30T10:11:18;102651.34;;;15.09;82.33
78444;BME280;67739;52.986;8.894;2023-09-30T10:13:57;102657.38;;;15.15;82.56
78444;BME280;67739;52.986;8.894;2023-09-30T10:21:33;102664.91;;;15.31;81.92
78444;BME280;67739;52.986;8.894;2023-09-30T10:29:46;102674.09;;;15.50;81.50
78444;BME280;67739;52.986;8.894;2023-09-30T10:32:11;102653.16;;;15.57;81.30
78444;BME280;67739;52.986;8.894;2023-09-30T10:34:36;102653.78;;;15.63;81.06
78444;BME280;67739;52.986;8.894;2023-09-30T10:37:22;102653.50;;;15.71;81.12
78444;BME280;67739;52.986;8.894;2023-09-30T10:39:57;102661.22;;;15.80;80.90
78444;BME280;67739;52.986;8.894;2023-09-30T10:42:46;102666.41;;;15.86;80.35
78444;BME280;67739;52.986;8.894;2023-09-30T10:50:50;102674.38;;;16.11;79.65
78444;BME280;67739;52.986;8.894;2023-09-30T10:53:17;102676.66;;;16.21;79.66
78444;BME280;67739;52.986;8.894;2023-09-30T10:55:45;102673.47;;;16.32;79.39
78444;BME280;67739;52.986;8.894;2023-09-30T10:58:10;102679.34;;;16.43;79.34
78444;BME280;67739;52.986;8.894;2023-09-30T11:00:36;102680.69;;;16.53;79.22
78444;BME280;67739;52.986;8.894;2023-09-30T11:03:04;102667.59;;;16.65;78.69
78444;BME280;67739;52.986;8.894;2023-09-30T11:05:31;102668.16;;;16.73;78.24
78444;BME280;67739;52.986;8.894;2023-09-30T11:08:01;102671.34;;;16.82;77.99
78444;BME280;67739;52.986;8.894;2023-09-30T11:10:28;102670.09;;;16.89;77.59
78444;BME280;67739;52.986;8.894;2023-09-30T11:12:57;102652.56;;;16.98;77.08
78444;BME280;67739;52.986;8.894;2023-09-30T11:15:23;102661.13;;;17.08;77.25
78444;BME280;67739;52.986;8.894;2023-09-30T11:17:49;102652.66;;;17.15;76.47
78444;BME280;67739;52.986;8.894;2023-09-30T11:20:16;102654.06;;;17.24;75.97
78444;BME280;67739;52.986;8.894;2023-09-30T11:22:44;102648.25;;;17.31;75.61
78444;BME280;67739;52.986;8.894;2023-09-30T11:25:19;102652.47;;;17.39;75.17
78444;BME280;67739;52.986;8.894;2023-09-30T11:27:45;102663.81;;;17.47;74.89
78444;BME280;67739;52.986;8.894;2023-09-30T11:30:12;102663.34;;;17.57;74.17
78444;BME280;67739;52.986;8.894;2023-09-30T11:32:38;102664.75;;;17.66;74.24
78444;BME280;67739;52.986;8.894;2023-09-30T11:35:08;102666.22;;;17.73;73.93
78444;BME280;67739;52.986;8.894;2023-09-30T11:37:34;102673.09;;;17.80;73.36
78444;BME280;67739;52.986;8.894;2023-09-30T11:40:10;102671.06;;;17.85;73.13
78444;BME280;67739;52.986;8.894;2023-09-30T11:42:37;102659.88;;;17.91;73.04
78444;BME280;67739;52.986;8.894;2023-09-30T11:45:21;102662.22;;;17.99;72.96
78444;BME280;67739;52.986;8.894;2023-09-30T11:47:49;102669.03;;;18.08;72.86
78444;BME280;67739;52.986;8.894;2023-09-30T11:50:15;102666.91;;;18.14;72.63
78444;BME280;67739;52.986;8.894;2023-09-30T11:52:44;102666.50;;;18.22;72.42
78444;BME280;67739;52.986;8.894;2023-09-30T11:55:10;102667.16;;;18.27;71.83
78444;BME280;67739;52.986;8.894;2023-09-30T11:57:37;102655.94;;;18.33;71.68
78444;BME280;67739;52.986;8.894;2023-09-30T12:00:04;102646.69;;;18.37;71.11
78444;BME280;67739;52.986;8.894;2023-09-30T12:02:38;102642.72;;;18.44;70.88
78444;BME280;67739;52.986;8.894;2023-09-30T12:05:05;102644.22;;;18.50;70.50
78444;BME280;67739;52.986;8.894;2023-09-30T12:07:37;102645.63;;;18.58;70.35
78444;BME280;67739;52.986;8.894;2023-09-30T12:10:06;102638.81;;;18.67;70.42
78444;BME280;67739;52.986;8.894;2023-09-30T12:12:32;102627.63;;;18.73;70.07
78444;BME280;67739;52.986;8.894;2023-09-30T12:14:57;102629.94;;;18.81;69.66
78444;BME280;67739;52.986;8.894;2023-09-30T12:17:23;102635.94;;;18.87;69.26
78444;BME280;67739;52.986;8.894;2023-09-30T12:19:48;102630.06;;;18.95;69.16
78444;BME280;67739;52.986;8.894;2023-09-30T12:22:15;102637.91;;;19.01;68.47
78444;BME280;67739;52.986;8.894;2023-09-30T12:24:40;102632.03;;;19.08;67.76
78444;BME280;67739;52.986;8.894;2023-09-30T12:27:05;102629.88;;;19.15;68.01
78444;BME280;67739;52.986;8.894;2023-09-30T12:29:31;102624.88;;;19.23;67.48
78444;BME280;67739;52.986;8.894;2023-09-30T12:31:57;102625.34;;;19.31;67.55
78444;BME280;67739;52.986;8.894;2023-09-30T12:34:22;102623.06;;;19.39;67.14
78444;BME280;67739;52.986;8.894;2023-09-30T12:36:51;102620.78;;;19.48;67.37
78444;BME280;67739;52.986;8.894;2023-09-30T12:39:18;102619.50;;;19.55;67.16
78444;BME280;67739;52.986;8.894;2023-09-30T12:41:49;102616.25;;;19.64;67.13
78444;BME280;67739;52.986;8.894;2023-09-30T12:44:14;102603.97;;;19.72;67.17
78444;BME280;67739;52.986;8.894;2023-09-30T12:46:40;102603.50;;;19.80;66.98
78444;BME280;67739;52.986;8.894;2023-09-30T12:49:09;102603.94;;;19.88;66.73
78444;BME280;67739;52.986;8.894;2023-09-30T12:51:35;102596.38;;;19.93;66.82
78444;BME280;67739;52.986;8.894;2023-09-30T12:54:00;102595.22;;;19.97;66.70
78444;BME280;67739;52.986;8.894;2023-09-30T12:56:26;102597.69;;;20.02;66.05
78444;BME280;67739;52.986;8.894;2023-09-30T12:58:53;102601.09;;;20.05;66.09
78444;BME280;67739;52.986;8.894;2023-09-30T13:01:19;102602.56;;;20.11;65.96
78444;BME280;67739;52.986;8.894;2023-09-30T13:03:44;102605.84;;;20.18;66.09
78444;BME280;67739;52.986;8.894;2023-09-30T13:06:10;102610.00;;;20.23;65.83